Latest Coastal Weather Observations for Point Stuart

IDD60701

Issued at 11:01 pm CST Sunday 29 May 2016 (issued every 10 minutes, with the page automatically refreshed every 10 minutes)

About coastal observations | Map of coastal stations | Coastal observations for NT | Marine services | Other Formats
Station Details ID: 014254 Name: POINT STUART Lat: -12.24 Lon: 131.88 Height: 1.0 m
Data from the previous 72 hours. | See also: Recent months at Point Stuart
Date/Time
CST
Temp

°C
Wind Pressure Rain
since 9am
mm
Weather Cloud Vis
km
Sea
Height
m
Swell
Dir
 
Speed
knots
Gust
knots
hPa Trend Height
m
Period
s
Dir
29/11:00pm 27.0 CALM 0 0 1013.1 - 0.0 - - - - - - -
29/10:30pm 27.4 CALM 0 4 1013.2 - 0.0 - - - - - - -
29/10:00pm 27.7 N 4 6 1013.1 - 0.0 - - - - - - -
29/09:30pm 28.2 NNE 5 7 1013.0 - 0.0 - - - - - - -
29/09:00pm 28.4 N 4 7 1012.7 - 0.0 - - - - - - -
29/08:30pm 28.4 NNE 5 9 1012.3 - 0.0 - - - - - - -
29/08:00pm 28.4 N 6 9 1012.1 - 0.0 - - - - - - -
29/07:30pm 28.2 NNE 5 7 1011.8 - 0.0 - - - - - - -
29/07:00pm 28.5 N 4 5 1011.7 - 0.0 - - - - - - -
29/06:30pm 29.0 N 3 5 1011.5 - 0.0 - - - - - - -
29/06:00pm 29.7 N 3 5 1011.0 - 0.0 - - - - - - -
29/05:30pm 30.4 NNE 4 6 1010.6 - 0.0 - - - - - - -
29/05:00pm 31.3 NE 5 7 1010.3 - 0.0 - - - - - - -
29/04:30pm 31.0 ENE 5 8 1010.2 - 0.0 - - - - - - -
29/04:00pm 30.7 NE 7 9 1010.1 - 0.0 - - - - - - -
29/03:30pm 31.2 ENE 7 10 1010.5 - 0.0 - - - - - - -
29/03:00pm 31.3 NNE 6 9 1010.8 - 0.0 - - - - - - -
29/02:30pm 31.2 NNE 6 9 1011.0 - 0.0 - - - - - - -
29/02:00pm 31.1 NE 5 8 1011.7 - 0.0 - - - - - - -
29/01:30pm 30.8 ENE 6 9 1012.0 - 0.0 - - - - - - -
29/01:00pm 30.6 NE 5 9 1012.4 - 0.0 - - - - - - -
29/12:30pm 29.5 ESE 6 9 1013.0 - 0.0 - - - - - - -
29/12:00pm 29.5 E 4 8 1013.4 - 0.0 - - - - - - -
29/11:30am 29.0 NNE 3 7 1013.8 - 0.0 - - - - - - -
29/11:00am 28.1 N 7 11 1014.1 - 0.0 - - - - - - -
29/10:30am 28.3 NNE 6 12 1014.5 - 0.0 - - - - - - -
29/10:00am 27.1 NE 8 11 1014.4 - 0.0 - - - - - - -
29/09:30am 26.4 NE 3 5 1014.5 - 0.0 - - - - - - -
29/09:00am 26.2 SSE 3 4 1014.1 - 6.6 - - - - - - -
29/08:30am 25.4 SSE 2 4 1014.0 - 6.6 - - - - - - -
29/08:00am 25.2 W 5 7 1013.6 - 6.6 - - - - - - -
29/07:30am 25.0 ESE 3 5 1013.0 - 6.6 - - - - - - -
29/07:00am 24.9 ENE 7 10 1012.7 - 6.6 - - - - - - -
29/06:30am 24.8 ENE 9 12 1012.3 - 6.6 - - - - - - -
29/06:00am 24.8 ENE 9 13 1012.0 - 6.6 - - - - - - -
29/05:30am 25.1 ENE 11 14 1011.8 - 6.6 - - - - - - -
29/05:00am 25.3 S 5 6 1011.4 - 6.6 - - - - - - -
29/04:30am 25.2 S 5 7 1011.3 - 6.6 - - - - - - -
29/04:00am 25.2 E 1 4 1011.3 - 6.4 - - - - - - -
29/03:30am 25.7 NW 5 9 1011.2 - 3.4 - - - - - - -
29/03:00am 25.8 N 6 10 1011.1 - 0.0 - - - - - - -
29/02:30am 26.0 S 4 6 1011.2 - 0.0 - - - - - - -
29/02:00am 25.9 SSW 3 5 1011.3 - 0.0 - - - - - - -
29/01:30am 26.3 SW 4 5 1011.4 - 0.0 - - - - - - -
29/01:00am 26.9 WSW 4 5 1011.6 - 0.0 - - - - - - -
29/12:30am 27.5 S 2 5 1011.9 - 0.0 - - - - - - -
29/12:00am 27.8 NW 5 7 1012.0 - 0.0 - - - - - - -
 
Date/Time
CST
Temp

°C
Wind Pressure Rain
since 9am
mm
Weather Cloud Vis
km
Sea
Height
m
Swell
Dir
 
Speed
knots
Gust
knots
hPa Trend Height
m
Period
s
Dir
28/11:30pm 27.8 NNW 5 7 1011.9 - 0.0 - - - - - - -
28/11:00pm 27.8 NNW 4 6 1011.9 - 0.0 - - - - - - -
28/10:30pm 27.6 NNW 5 7 1012.1 - 0.0 - - - - - - -
28/10:00pm 27.5 NNW 5 7 1011.9 - 0.0 - - - - - - -
28/09:30pm 27.3 NNW 4 6 1011.8 - 0.0 - - - - - - -
28/09:00pm 27.4 NNW 4 6 1011.7 - 0.0 - - - - - - -
28/08:30pm 27.5 NNW 4 5 1011.3 - 0.0 - - - - - - -
28/08:00pm 27.8 NW 4 5 1010.9 - 0.0 - - - - - - -
28/07:30pm 28.2 NW 4 5 1010.6 - 0.0 - - - - - - -
28/07:00pm 28.6 NW 5 6 1010.3 - 0.0 - - - - - - -
28/06:30pm 29.6 NW 5 7 1010.1 - 0.0 - - - - - - -
28/06:00pm 30.7 NW 7 9 1009.9 - 0.0 - - - - - - -
28/05:30pm 31.5 NNW 6 9 1009.7 - 0.0 - - - - - - -
28/05:00pm 32.1 NNW 5 8 1009.6 - 0.0 - - - - - - -
28/04:30pm 32.7 NW 6 9 1009.5 - 0.0 - - - - - - -
28/04:00pm 32.5 NNW 6 8 1009.8 - 0.0 - - - - - - -
28/03:30pm 32.5 NW 8 10 1009.9 - 0.0 - - - - - - -
28/03:00pm 32.7 NNW 7 11 1010.2 - 0.0 - - - - - - -
28/02:30pm 32.5 NNW 7 11 1010.6 - 0.0 - - - - - - -
28/02:00pm 32.4 NNW 7 11 1011.0 - 0.0 - - - - - - -
28/01:30pm 32.5 NNW 7 11 1011.4 - 0.0 - - - - - - -
28/01:00pm 32.1 NNW 5 11 1011.7 - 0.0 - - - - - - -
28/12:30pm 32.1 N 6 10 1012.2 - 0.0 - - - - - - -
28/12:00pm 32.0 N 6 10 1012.7 - 0.0 - - - - - - -
28/11:30am 32.1 NNW 7 11 1013.3 - 0.0 - - - - - - -
28/11:00am 31.6 NNW 6 9 1013.5 - 0.0 - - - - - - -
28/10:30am 31.0 NW 6 9 1013.9 - 0.0 - - - - - - -
28/10:00am 29.3 NNW 5 8 1014.1 - 0.0 - - - - - - -
28/09:30am 29.1 W 3 8 1014.1 - 0.0 - - - - - - -
28/09:00am 28.3 SW 4 6 1014.0 - 0.0 - - - - - - -
28/08:30am 27.2 S 3 5 1013.9 - 0.0 - - - - - - -
28/08:00am 26.2 CALM 0 3 1013.6 - 0.0 - - - - - - -
28/07:30am 25.2 S 4 5 1013.5 - 0.0 - - - - - - -
28/07:00am 24.8 S 4 5 1013.3 - 0.0 - - - - - - -
28/06:30am 25.0 S 4 5 1012.9 - 0.0 - - - - - - -
28/06:00am 25.2 S 1 3 1012.5 - 0.0 - - - - - - -
28/05:30am 25.3 SSE 3 4 1012.4 - 0.0 - - - - - - -
28/05:00am 25.3 SE 4 5 1012.3 - 0.0 - - - - - - -
28/04:30am 25.5 SSE 1 3 1012.3 - 0.0 - - - - - - -
28/04:00am 25.7 S 4 5 1012.0 - 0.0 - - - - - - -
28/03:30am 25.7 S 5 6 1011.8 - 0.0 - - - - - - -
28/03:00am 26.2 SSW 1 6 1011.8 - 0.0 - - - - - - -
28/02:30am 26.6 SSW 3 6 1012.0 - 0.0 - - - - - - -
28/02:00am 27.4 W 3 5 1012.2 - 0.0 - - - - - - -
28/01:30am 27.6 NW 6 8 1012.2 - 0.0 - - - - - - -
28/01:00am 27.6 NW 6 8 1012.2 - 0.0 - - - - - - -
28/12:30am 27.7 NW 6 7 1012.2 - 0.0 - - - - - - -
28/12:00am 27.9 NW 7 9 1012.1 - 0.0 - - - - - - -
 
Date/Time
CST
Temp

°C
Wind Pressure Rain
since 9am
mm
Weather Cloud Vis
km
Sea
Height
m
Swell
Dir
 
Speed
knots
Gust
knots
hPa Trend Height
m
Period
s
Dir
27/11:30pm 28.0 NNW 6 8 1012.4 - 0.0 - - - - - - -
27/11:00pm 28.0 NNW 7 10 1012.5 - 0.0 - - - - - - -
27/10:30pm 28.2 NW 8 11 1012.4 - 0.0 - - - - - - -
27/10:00pm 28.1 NW 8 10 1012.5 - 0.0 - - - - - - -
27/09:30pm 28.0 WNW 7 10 1012.1 - 0.0 - - - - - - -
27/09:00pm 27.8 NW 7 9 1012.0 - 0.0 - - - - - - -
27/08:30pm 27.6 NW 7 8 1011.5 - 0.0 - - - - - - -
27/08:00pm 27.4 NW 6 8 1011.4 - 0.0 - - - - - - -
27/07:30pm 27.8 NW 6 6 1011.3 - 0.0 - - - - - - -
27/07:00pm 28.3 NW 6 7 1011.0 - 0.0 - - - - - - -
27/06:30pm 29.1 NW 6 8 1010.9 - 0.0 - - - - - - -
27/06:00pm 30.2 NW 7 9 1010.7 - 0.0 - - - - - - -
27/05:30pm 31.2 NNW 6 10 1010.5 - 0.0 - - - - - - -
27/05:00pm 31.3 NNW 7 10 1010.5 - 0.0 - - - - - - -
27/04:30pm 30.9 NNW 7 10 1010.5 - 0.0 - - - - - - -
27/04:00pm 31.8 NNW 7 11 1010.5 - 0.0 - - - - - - -
27/03:30pm 32.3 NNW 9 14 1010.8 - 0.0 - - - - - - -
27/03:00pm 32.6 NNW 8 14 1011.2 - 0.0 - - - - - - -
27/02:30pm 32.8 NNW 8 12 1011.4 - 0.0 - - - - - - -
27/02:00pm 32.1 NNW 7 11 1011.7 - 0.0 - - - - - - -
27/01:30pm 32.1 NNW 7 12 1012.1 - 0.0 - - - - - - -
27/01:00pm 32.2 NNW 7 11 1012.8 - 0.0 - - - - - - -
27/12:30pm 32.2 NNW 6 8 1013.1 - 0.0 - - - - - - -
27/12:00pm 32.1 NNW 7 11 1013.7 - 0.0 - - - - - - -
27/11:30am 31.5 NNW 7 10 1014.2 - 0.0 - - - - - - -
27/11:00am 30.1 NNW 5 7 1014.4 - 0.0 - - - - - - -
27/10:30am 29.4 W 6 9 1014.7 - 0.0 - - - - - - -
27/10:00am 29.5 SW 3 7 1014.6 - 0.0 - - - - - - -
27/09:30am 28.2 S 4 6 1014.7 - 0.0 - - - - - - -
27/09:00am 27.1 CALM 0 3 1014.7 - 0.0 - - - - - - -
27/08:30am 26.5 CALM 0 0 1014.2 - 0.0 - - - - - - -
27/08:00am 25.8 S 1 3 1013.7 - 0.0 - - - - - - -
27/07:30am 24.6 CALM 0 0 1013.5 - 0.0 - - - - - - -
27/07:00am 24.2 S 2 4 1013.4 - 0.0 - - - - - - -
27/06:30am 24.3 S 4 5 1012.9 - 0.0 - - - - - - -
27/06:00am 24.5 SW 2 4 1012.5 - 0.0 - - - - - - -
27/05:30am 24.7 NW 4 5 1012.5 - 0.0 - - - - - - -
27/05:00am 24.8 S 4 5 1012.6 - 0.0 - - - - - - -
27/04:30am 24.9 S 4 6 1012.4 - 0.0 - - - - - - -
27/04:00am 25.2 S 5 6 1012.2 - 0.0 - - - - - - -
27/03:30am 25.2 S 5 6 1012.3 - 0.0 - - - - - - -
27/03:00am 25.1 SSW 4 5 1012.2 - 0.0 - - - - - - -
27/02:30am 25.2 SSW 4 4 1012.1 - 0.0 - - - - - - -
27/02:00am 25.5 SW 3 4 1012.3 - 0.0 - - - - - - -
27/01:30am 25.6 SW 4 5 1012.5 - 0.0 - - - - - - -
27/01:00am 25.8 SW 3 5 1012.7 - 0.0 - - - - - - -
27/12:30am 25.7 SW 3 4 1012.8 - 0.0 - - - - - - -
27/12:00am 26.2 SSW 6 8 1012.9 - 0.0 - - - - - - -
 
Date/Time
CST
Temp

°C
Wind Pressure Rain
since 9am
mm
Weather Cloud Vis
km
Sea
Height
m
Swell
Dir
 
Speed
knots
Gust
knots
hPa Trend Height
m
Period
s
Dir
26/11:30pm 26.7 NW 7 9 1012.9 - 0.0 - - - - - - -

Other Formats:

Comma delimited format used in spreadsheet applications
http://www.bom.gov.au/fwo/IDD60701/IDD60701.94127.axf

JavaScript Object Notation format (JSON) in row-major order
http://www.bom.gov.au/fwo/IDD60701/IDD60701.94127.json